Time;durP1;ratioP1;P1;durP2;ratioP2;P2;SDS_P1;SDS_P2;PMS_P1;PMS_P2;Temp;Humidity;BMP_temperature;BMP_pressure;BME280_temperature;BME280_humidity;BME280_pressure;Samples;Min_cycle;Max_cycle;Signal;HPM_P1;HPM_P2
2021/12/22 00:02:20;;;;;;;8.80;7.67;;;2.00;99.90;;;;;;4875094;28;21013;-84
2021/12/22 00:04:49;;;;;;;10.10;6.07;;;1.90;99.90;;;;;;4867837;28;20479;-84
2021/12/22 00:07:16;;;;;;;10.20;5.87;;;1.90;99.90;;;;;;4857061;28;20475;-82
2021/12/22 00:09:43;;;;;;;10.03;7.30;;;2.00;99.90;;;;;;4854635;28;21696;-85
2021/12/22 00:12:10;;;;;;;9.80;6.63;;;1.90;99.90;;;;;;4894380;28;21045;-84
2021/12/22 00:14:38;;;;;;;10.67;6.80;;;1.90;99.90;;;;;;4916665;28;20809;-84
2021/12/22 00:17:05;;;;;;;8.50;6.70;;;1.70;99.90;;;;;;4914712;28;20460;-84
2021/12/22 00:19:32;;;;;;;9.40;6.37;;;1.70;99.90;;;;;;4895537;28;20465;-84
2021/12/22 00:21:59;;;;;;;8.30;6.20;;;1.40;99.90;;;;;;4862633;28;22362;-82
2021/12/22 00:24:25;;;;;;;9.57;6.83;;;1.60;99.90;;;;;;4854292;28;20449;-84
2021/12/22 00:26:53;;;;;;;8.00;5.97;;;1.60;99.90;;;;;;4848527;28;20458;-85
2021/12/22 00:29:23;;;;;;;9.07;5.53;;;1.70;99.90;;;;;;4889638;28;20465;-85
2021/12/22 00:32:08;;;;;;;9.77;6.00;;;1.40;99.90;;;;;;4845221;28;20488;-85
2021/12/22 00:34:44;;;;;;;9.90;5.80;;;1.60;99.90;;;;;;4853703;28;20627;-85
2021/12/22 00:37:11;;;;;;;7.87;5.97;;;1.50;99.90;;;;;;4855427;28;20462;-86
2021/12/22 00:39:40;;;;;;;12.40;6.53;;;1.50;99.90;;;;;;4903400;28;21106;-84
2021/12/22 00:42:07;;;;;;;9.33;6.40;;;1.40;99.90;;;;;;4914259;28;22022;-85
2021/12/22 00:44:33;;;;;;;7.27;6.23;;;1.50;99.90;;;;;;4911514;28;20474;-84
2021/12/22 00:47:00;;;;;;;11.20;6.43;;;1.60;99.90;;;;;;4890842;28;20463;-83
2021/12/22 00:49:27;;;;;;;11.37;6.23;;;1.50;99.90;;;;;;4854670;28;20471;-84
2021/12/22 00:51:53;;;;;;;10.53;6.47;;;1.60;99.90;;;;;;4849566;28;20488;-84
2021/12/22 00:54:20;;;;;;;12.60;5.60;;;1.70;99.90;;;;;;4857654;28;20460;-84
2021/12/22 00:56:47;;;;;;;8.63;5.77;;;1.60;99.90;;;;;;4878362;28;20834;-84
2021/12/22 00:59:16;;;;;;;11.47;6.27;;;1.40;99.90;;;;;;4858226;28;20488;-85
2021/12/22 01:01:45;;;;;;;7.53;6.10;;;1.40;99.90;;;;;;4855953;28;22301;-86
2021/12/22 01:04:12;;;;;;;8.33;5.73;;;1.40;99.90;;;;;;4888955;28;20452;-84
2021/12/22 01:06:39;;;;;;;9.03;6.30;;;1.60;99.90;;;;;;4899375;28;20470;-86
2021/12/22 01:09:06;;;;;;;8.47;6.33;;;1.60;99.90;;;;;;4918261;28;20465;-85
2021/12/22 01:11:33;;;;;;;8.57;5.70;;;1.60;99.90;;;;;;4917066;28;20679;-86
2021/12/22 01:13:59;;;;;;;7.40;5.60;;;1.60;99.90;;;;;;4873239;28;20484;-87
2021/12/22 01:16:27;;;;;;;8.60;5.67;;;1.50;99.90;;;;;;4864958;28;20500;-86
2021/12/22 01:18:54;;;;;;;7.73;5.10;;;1.50;99.90;;;;;;4861559;28;20479;-85
2021/12/22 01:21:32;;;;;;;8.83;5.27;;;1.60;99.90;;;;;;4855341;28;21486;-87
2021/12/22 01:24:13;;;;;;;9.70;5.90;;;1.60;99.90;;;;;;4907195;28;21873;-87
2021/12/22 01:26:46;;;;;;;6.17;5.20;;;1.60;99.90;;;;;;4860981;28;20457;-86
2021/12/22 01:29:14;;;;;;;6.00;5.40;;;1.60;99.90;;;;;;4859875;28;20487;-86
2021/12/22 01:31:42;;;;;;;8.13;4.77;;;1.60;99.90;;;;;;4865509;28;20480;-84
2021/12/22 01:34:09;;;;;;;9.13;5.53;;;1.60;99.90;;;;;;4898916;28;20476;-85
2021/12/22 01:36:37;;;;;;;6.87;5.63;;;1.50;99.90;;;;;;4916123;28;20461;-86
2021/12/22 01:39:07;;;;;;;8.50;6.10;;;1.50;99.90;;;;;;4917616;28;21010;-85
2021/12/22 01:41:57;;;;;;;8.17;5.80;;;1.30;99.90;;;;;;4896076;28;21033;-87
2021/12/22 01:50:31;;;;;;;12.47;6.43;;;1.40;99.90;;;;;;4900905;28;20471;-86
2021/12/22 01:53:20;;;;;;;12.00;6.50;;;1.30;99.90;;;;;;4863327;28;20490;-87
2021/12/22 01:56:21;;;;;;;8.20;5.47;;;1.20;99.90;;;;;;4844872;28;20471;-87
2021/12/22 01:59:03;;;;;;;11.00;5.43;;;1.30;99.90;;;;;;4904872;28;20492;-85
2021/12/22 02:01:55;;;;;;;6.77;5.67;;;1.40;99.90;;;;;;4931925;28;20558;-86
2021/12/22 02:04:37;;;;;;;8.23;6.50;;;1.50;99.90;;;;;;4912547;28;20460;-86
2021/12/22 02:07:08;;;;;;;11.50;5.83;;;1.40;99.90;;;;;;4872701;28;20460;-86
2021/12/22 02:12:24;;;;;;;9.37;5.60;;;1.30;99.90;;;;;;4855287;28;20525;-84
2021/12/22 02:14:51;;;;;;;7.43;5.63;;;1.10;99.90;;;;;;4898935;28;20484;-86
2021/12/22 02:17:17;;;;;;;6.20;5.60;;;1.10;99.90;;;;;;4850257;28;21347;-84
2021/12/22 02:19:48;;;;;;;6.67;5.70;;;1.00;99.90;;;;;;4855121;28;22680;-86
2021/12/22 02:22:16;;;;;;;10.20;6.00;;;1.00;99.90;;;;;;4861590;28;21652;-85
2021/12/22 02:28:09;;;;;;;8.30;6.67;;;1.20;99.90;;;;;;4916578;28;20487;-86
2021/12/22 02:30:36;;;;;;;7.40;5.43;;;1.20;99.90;;;;;;4907851;28;20467;-86
2021/12/22 02:33:19;;;;;;;9.50;6.20;;;1.20;99.90;;;;;;4865933;28;20560;-84
2021/12/22 02:36:23;;;;;;;7.87;6.20;;;1.40;99.90;;;;;;4850698;28;21518;-86
2021/12/22 02:38:42;;;;;;;7.57;5.93;;;1.30;99.90;;;;;;4853938;28;20475;-85
2021/12/22 02:41:12;;;;;;;7.83;5.33;;;1.40;99.90;;;;;;4921788;28;20476;-85
2021/12/22 02:43:50;;;;;;;9.67;6.30;;;1.30;99.90;;;;;;4926857;28;20467;-86
2021/12/22 02:46:20;;;;;;;9.10;5.60;;;1.30;99.90;;;;;;4933032;28;20447;-86
2021/12/22 02:48:47;;;;;;;8.80;5.70;;;1.30;99.90;;;;;;4918316;28;20891;-86
2021/12/22 02:51:18;;;;;;;7.30;5.63;;;1.30;99.90;;;;;;4918871;28;20465;-86
2021/12/22 02:54:17;;;;;;;9.07;5.57;;;1.30;99.90;;;;;;4933748;28;20460;-87
2021/12/22 02:56:53;;;;;;;9.07;6.80;;;1.30;99.90;;;;;;4917822;28;20465;-85
2021/12/22 02:59:52;;;;;;;8.03;4.77;;;1.10;99.90;;;;;;4869945;28;20809;-86
2021/12/22 03:03:01;;;;;;;7.63;5.67;;;1.00;99.90;;;;;;4862941;28;21055;-85
2021/12/22 03:05:12;;;;;;;6.80;6.00;;;0.80;99.90;;;;;;4875592;28;20469;-84
2021/12/22 03:07:39;;;;;;;8.87;5.83;;;0.80;99.90;;;;;;4880529;28;20491;-85
2021/12/22 03:10:12;;;;;;;7.47;5.07;;;0.80;99.90;;;;;;4859362;28;20466;-86
2021/12/22 03:12:40;;;;;;;8.53;5.60;;;1.10;99.90;;;;;;4864980;28;22975;-85
2021/12/22 03:15:09;;;;;;;6.97;6.20;;;1.20;99.90;;;;;;4909676;28;20857;-87
2021/12/22 03:17:37;;;;;;;8.20;6.10;;;1.20;99.90;;;;;;4920635;28;20490;-86
2021/12/22 03:20:07;;;;;;;7.00;5.57;;;1.20;99.90;;;;;;4922263;28;20951;-85
2021/12/22 03:22:35;;;;;;;6.83;4.90;;;1.10;99.90;;;;;;4904235;28;20993;-85
2021/12/22 03:25:02;;;;;;;7.20;5.60;;;1.00;99.90;;;;;;4863525;28;20464;-84
2021/12/22 03:27:28;;;;;;;7.10;5.97;;;0.80;99.90;;;;;;4862844;28;20492;-87
2021/12/22 03:29:55;;;;;;;7.67;5.70;;;0.80;99.90;;;;;;4919751;28;20454;-85
2021/12/22 03:32:22;;;;;;;6.90;5.50;;;1.00;99.90;;;;;;4892794;28;21629;-85
2021/12/22 03:34:49;;;;;;;9.67;6.13;;;1.00;99.90;;;;;;4887604;28;20460;-86
2021/12/22 03:37:16;;;;;;;7.20;5.00;;;0.90;99.90;;;;;;4871937;28;20479;-86
2021/12/22 03:39:42;;;;;;;7.20;5.50;;;1.00;99.90;;;;;;4908780;28;20468;-85
2021/12/22 03:42:10;;;;;;;6.77;6.07;;;1.00;99.90;;;;;;4914944;28;20467;-85
2021/12/22 03:44:38;;;;;;;8.10;5.40;;;1.00;99.90;;;;;;4920145;28;20468;-85
2021/12/22 03:47:05;;;;;;;6.73;5.30;;;1.10;99.90;;;;;;4910758;28;20552;-84
2021/12/22 03:49:33;;;;;;;6.27;5.57;;;1.00;99.90;;;;;;4873149;28;20460;-85
2021/12/22 03:52:00;;;;;;;9.43;5.40;;;1.00;99.90;;;;;;4863266;28;20488;-87
2021/12/22 03:54:27;;;;;;;8.27;5.43;;;1.00;99.90;;;;;;4861666;28;20464;-85
2021/12/22 03:56:54;;;;;;;7.77;5.10;;;0.90;99.90;;;;;;4864864;28;20460;-85
2021/12/22 03:59:21;;;;;;;7.57;5.37;;;0.90;99.90;;;;;;4908729;28;20471;-85
2021/12/22 04:01:47;;;;;;;9.27;6.20;;;1.00;99.90;;;;;;4866620;28;20484;-87
2021/12/22 04:04:17;;;;;;;10.80;6.00;;;0.90;99.90;;;;;;4868354;28;20540;-86
2021/12/22 04:06:46;;;;;;;8.20;5.33;;;1.00;99.90;;;;;;4908136;28;20563;-84
2021/12/22 04:09:15;;;;;;;7.93;5.00;;;0.80;99.90;;;;;;4933325;28;21333;-84
2021/12/22 04:11:43;;;;;;;7.17;4.87;;;0.90;99.90;;;;;;4928737;28;20469;-84
2021/12/22 04:14:12;;;;;;;7.03;5.67;;;0.70;99.90;;;;;;4898381;28;20511;-86
2021/12/22 04:16:39;;;;;;;5.80;4.03;;;0.90;99.90;;;;;;4867115;28;20461;-86
2021/12/22 04:19:05;;;;;;;8.80;5.47;;;0.90;99.90;;;;;;4868247;28;20881;-83
2021/12/22 04:21:32;;;;;;;11.80;6.60;;;1.00;99.90;;;;;;4877526;28;21632;-87
2021/12/22 04:24:00;;;;;;;7.20;5.50;;;1.00;99.90;;;;;;4898977;28;20476;-88
2021/12/22 04:26:31;;;;;;;9.77;5.70;;;1.00;99.90;;;;;;4871833;28;20455;-87
2021/12/22 04:28:58;;;;;;;6.40;4.50;;;0.90;99.90;;;;;;4869228;28;21800;-85
2021/12/22 04:31:25;;;;;;;9.87;5.57;;;1.00;99.90;;;;;;4909254;28;20472;-84
2021/12/22 04:33:52;;;;;;;6.80;5.30;;;0.90;99.90;;;;;;4917882;28;20512;-85
2021/12/22 04:36:18;;;;;;;9.23;5.00;;;0.80;99.90;;;;;;4918774;28;20471;-84
2021/12/22 04:38:45;;;;;;;5.83;4.90;;;0.80;99.90;;;;;;4895923;28;21797;-82
2021/12/22 04:41:12;;;;;;;6.80;5.40;;;0.90;99.90;;;;;;4864211;28;21264;-83
2021/12/22 04:43:38;;;;;;;8.67;5.60;;;0.90;99.90;;;;;;4869682;28;20452;-87
2021/12/22 04:46:05;;;;;;;6.30;4.70;;;0.90;99.90;;;;;;4896845;28;20463;-84
2021/12/22 04:48:34;;;;;;;6.90;4.90;;;0.90;99.90;;;;;;4896991;28;20472;-86
2021/12/22 04:51:11;;;;;;;8.10;5.27;;;0.80;99.90;;;;;;4890704;28;20452;-86
2021/12/22 04:53:49;;;;;;;8.07;5.37;;;0.90;99.90;;;;;;4892752;28;20464;-86
2021/12/22 04:56:16;;;;;;;8.63;5.50;;;1.00;99.90;;;;;;4915868;28;20468;-84
2021/12/22 04:58:42;;;;;;;7.23;5.30;;;0.90;99.90;;;;;;4909775;28;20482;-85
2021/12/22 05:01:09;;;;;;;6.97;5.13;;;0.90;99.90;;;;;;4924462;28;20567;-84
2021/12/22 05:03:36;;;;;;;8.40;5.70;;;1.00;99.90;;;;;;4907761;28;20475;-85
2021/12/22 05:06:03;;;;;;;5.73;4.30;;;1.00;99.90;;;;;;4872246;28;20978;-85
2021/12/22 05:08:30;;;;;;;7.50;5.50;;;1.10;99.90;;;;;;4859652;28;20472;-84
2021/12/22 05:11:02;;;;;;;8.87;5.23;;;1.00;99.90;;;;;;4859923;28;20467;-87
2021/12/22 05:13:30;;;;;;;7.80;4.50;;;0.90;99.90;;;;;;4887596;28;20954;-85
2021/12/22 05:15:57;;;;;;;6.57;5.60;;;1.00;99.90;;;;;;4931907;28;20471;-85
2021/12/22 05:18:36;;;;;;;6.13;4.67;;;0.80;99.90;;;;;;4931625;28;20485;-84
2021/12/22 05:21:03;;;;;;;8.97;5.20;;;0.90;99.90;;;;;;4913742;28;20441;-85
2021/12/22 05:23:29;;;;;;;12.00;5.87;;;0.90;99.90;;;;;;4907628;28;20471;-84
2021/12/22 05:25:56;;;;;;;7.57;5.53;;;0.80;99.90;;;;;;4923865;28;20560;-84
2021/12/22 05:28:23;;;;;;;7.67;6.57;;;0.60;99.90;;;;;;4921748;28;20484;-84
2021/12/22 05:30:49;;;;;;;11.13;5.70;;;0.60;99.90;;;;;;4880604;28;20472;-84
2021/12/22 05:33:16;;;;;;;7.50;5.20;;;0.60;99.90;;;;;;4863512;28;21547;-84
2021/12/22 05:35:43;;;;;;;7.60;5.40;;;0.70;99.90;;;;;;4860375;28;21777;-85
2021/12/22 05:38:11;;;;;;;14.43;6.70;;;0.80;99.90;;;;;;4858838;28;20480;-85
2021/12/22 05:40:38;;;;;;;10.70;5.67;;;0.70;99.90;;;;;;4904202;28;20659;-83
2021/12/22 05:43:07;;;;;;;12.60;5.70;;;0.70;99.90;;;;;;4866415;28;20468;-86
2021/12/22 05:45:46;;;;;;;10.87;5.57;;;0.80;99.90;;;;;;4864143;28;20989;-86
2021/12/22 05:48:13;;;;;;;9.50;6.07;;;0.80;99.90;;;;;;4887223;28;20479;-88
2021/12/22 05:50:44;;;;;;;8.27;5.70;;;0.60;99.90;;;;;;4912105;28;20461;-85
2021/12/22 05:53:11;;;;;;;7.73;6.03;;;0.70;99.90;;;;;;4912336;28;21261;-84
2021/12/22 05:55:37;;;;;;;9.33;5.10;;;0.50;99.90;;;;;;4904981;28;21263;-85
2021/12/22 05:58:09;;;;;;;11.00;5.90;;;0.50;99.90;;;;;;4886058;28;20486;-86
2021/12/22 06:00:36;;;;;;;13.70;6.20;;;0.40;99.90;;;;;;4861319;28;20500;-84
2021/12/22 06:03:03;;;;;;;15.07;6.03;;;0.60;99.90;;;;;;4868526;28;22206;-84
2021/12/22 06:05:30;;;;;;;12.97;7.13;;;1.00;99.90;;;;;;4865408;28;20469;-85
2021/12/22 06:07:57;;;;;;;16.37;7.93;;;1.10;99.90;;;;;;4904958;28;21797;-87
2021/12/22 06:10:26;;;;;;;18.67;7.67;;;1.00;99.90;;;;;;4855489;28;20838;-84
2021/12/22 06:12:53;;;;;;;16.20;7.07;;;0.90;99.90;;;;;;4865930;28;20485;-87
2021/12/22 06:15:20;;;;;;;15.77;7.13;;;1.10;99.90;;;;;;4870964;28;21923;-84
2021/12/22 06:17:54;;;;;;;12.00;7.23;;;1.10;99.90;;;;;;4906144;28;20507;-86
2021/12/22 06:20:21;;;;;;;10.90;6.27;;;0.90;99.90;;;;;;4905089;28;21420;-86
2021/12/22 06:22:48;;;;;;;8.53;6.00;;;0.70;99.90;;;;;;4922036;28;20561;-84
2021/12/22 06:25:14;;;;;;;15.03;5.97;;;0.90;99.90;;;;;;4893273;28;20465;-85
2021/12/22 06:27:41;;;;;;;9.40;5.40;;;0.80;99.90;;;;;;4863774;28;20479;-86
2021/12/22 06:30:09;;;;;;;10.57;7.43;;;0.90;99.90;;;;;;4867646;28;20452;-86
2021/12/22 06:32:35;;;;;;;7.70;6.03;;;1.00;99.90;;;;;;4876537;28;21051;-85
2021/12/22 06:35:02;;;;;;;5.60;4.60;;;0.90;99.90;;;;;;4912075;28;20465;-86
2021/12/22 06:37:29;;;;;;;7.63;4.60;;;0.80;99.90;;;;;;4874240;28;22029;-85
2021/12/22 06:39:58;;;;;;;10.67;5.57;;;0.80;99.90;;;;;;4869936;28;21871;-83
2021/12/22 06:42:25;;;;;;;7.87;5.27;;;0.80;99.90;;;;;;4892623;28;20505;-86
2021/12/22 06:44:55;;;;;;;6.10;5.50;;;0.80;99.90;;;;;;4902861;28;22169;-88
2021/12/22 06:47:35;;;;;;;6.33;5.53;;;0.70;99.90;;;;;;4917802;28;20546;-86
2021/12/22 06:50:04;;;;;;;6.83;5.97;;;0.70;99.90;;;;;;4923240;28;20463;-85
2021/12/22 06:52:45;;;;;;;14.47;6.00;;;0.70;99.90;;;;;;4916049;28;20484;-86
2021/12/22 06:55:16;;;;;;;10.80;7.30;;;0.60;99.90;;;;;;4871662;28;20642;-86
2021/12/22 06:57:53;;;;;;;11.17;5.73;;;0.60;99.90;;;;;;4869985;28;20506;-85
2021/12/22 07:00:20;;;;;;;10.93;6.37;;;0.40;99.90;;;;;;4891312;28;20467;-86
2021/12/22 07:02:50;;;;;;;7.13;5.20;;;0.50;99.90;;;;;;4918584;28;20480;-85
2021/12/22 07:05:18;;;;;;;10.67;7.07;;;0.40;99.90;;;;;;4880177;28;20458;-86
2021/12/22 07:07:45;;;;;;;6.93;5.80;;;0.60;99.90;;;;;;4897788;28;20486;-84
2021/12/22 07:10:12;;;;;;;6.53;5.70;;;0.50;99.90;;;;;;4891994;28;20523;-83
2021/12/22 07:12:45;;;;;;;7.57;5.43;;;0.40;99.90;;;;;;4930731;28;20489;-85
2021/12/22 07:15:14;;;;;;;6.70;5.53;;;0.40;99.90;;;;;;4917669;28;20539;-84
2021/12/22 07:17:42;;;;;;;7.80;5.67;;;0.40;99.90;;;;;;4923424;28;20499;-83
2021/12/22 07:20:16;;;;;;;24.43;8.80;;;0.40;99.90;;;;;;4909953;28;20478;-86
2021/12/22 07:22:49;;;;;;;11.40;6.67;;;0.20;99.90;;;;;;4869473;28;20458;-85
2021/12/22 07:25:18;;;;;;;13.33;6.30;;;0.20;99.90;;;;;;4867222;28;21929;-86
2021/12/22 07:27:51;;;;;;;15.40;6.43;;;0.40;99.90;;;;;;4873731;28;22348;-85
2021/12/22 07:30:18;;;;;;;10.23;6.30;;;0.30;99.90;;;;;;4904401;28;20468;-85
2021/12/22 07:32:44;;;;;;;13.53;8.50;;;0.60;99.90;;;;;;4866697;28;21852;-83
2021/12/22 07:35:29;;;;;;;7.30;6.27;;;0.70;99.90;;;;;;4866574;28;20451;-86
2021/12/22 07:38:24;;;;;;;9.10;6.63;;;0.60;99.90;;;;;;4890518;28;20487;-84
2021/12/22 07:40:59;;;;;;;8.03;5.03;;;0.60;99.90;;;;;;4902223;28;20506;-85
2021/12/22 07:43:28;;;;;;;9.27;6.40;;;0.50;99.90;;;;;;4919943;28;21113;-85
2021/12/22 07:46:03;;;;;;;8.77;5.60;;;0.60;99.90;;;;;;4906331;28;20505;-84
2021/12/22 07:48:37;;;;;;;10.40;6.50;;;0.60;99.90;;;;;;4882711;28;22310;-83
2021/12/22 07:51:18;;;;;;;10.40;5.27;;;0.40;99.90;;;;;;4865214;28;20572;-84
2021/12/22 07:53:54;;;;;;;8.53;6.07;;;0.50;99.90;;;;;;4860896;28;20499;-85
2021/12/22 07:56:22;;;;;;;6.97;6.23;;;0.60;99.90;;;;;;4898058;28;20553;-86
2021/12/22 07:58:57;;;;;;;6.10;4.60;;;0.60;99.90;;;;;;4857359;28;20493;-85
2021/12/22 08:01:37;;;;;;;8.07;5.90;;;0.50;99.90;;;;;;4862883;28;20474;-83
2021/12/22 08:04:16;;;;;;;10.00;5.27;;;0.50;99.90;;;;;;4885888;28;20478;-80
2021/12/22 08:06:46;;;;;;;13.00;6.67;;;0.60;99.90;;;;;;4896262;28;20455;-84
2021/12/22 08:09:16;;;;;;;7.37;5.50;;;0.50;99.90;;;;;;4934963;28;21004;-84
2021/12/22 08:12:04;;;;;;;9.50;5.93;;;0.50;99.90;;;;;;4935951;28;20452;-87
2021/12/22 08:14:45;;;;;;;12.00;7.33;;;0.60;99.90;;;;;;4918896;28;20666;-85
2021/12/22 08:17:13;;;;;;;12.37;7.13;;;0.70;99.90;;;;;;4885517;28;20477;-86
2021/12/22 08:19:41;;;;;;;7.27;5.50;;;0.60;99.90;;;;;;4885146;28;20453;-85
2021/12/22 08:22:07;;;;;;;8.30;6.40;;;0.70;99.90;;;;;;4870324;28;20477;-84
2021/12/22 08:24:34;;;;;;;10.60;6.60;;;0.90;99.90;;;;;;4914915;28;20464;-85
2021/12/22 08:27:01;;;;;;;12.30;7.00;;;0.80;99.90;;;;;;4899623;28;20479;-83
2021/12/22 08:29:28;;;;;;;10.30;6.67;;;0.80;99.90;;;;;;4875704;28;20448;-83
2021/12/22 08:31:55;;;;;;;9.53;6.20;;;0.80;99.90;;;;;;4872809;28;20471;-87
2021/12/22 08:34:35;;;;;;;10.87;5.70;;;0.70;99.90;;;;;;4903897;28;20489;-83
2021/12/22 08:39:49;;;;;;;10.33;7.40;;;0.90;99.90;;;;;;4926176;28;20663;-85
2021/12/22 08:42:16;;;;;;;12.90;6.77;;;0.80;99.90;;;;;;4880932;28;20534;-81
2021/12/22 08:44:43;;;;;;;12.97;7.13;;;0.90;99.90;;;;;;4869998;28;20464;-86
2021/12/22 08:47:10;;;;;;;9.67;7.47;;;0.90;99.90;;;;;;4880078;28;20477;-86
2021/12/22 08:49:37;;;;;;;17.37;7.30;;;0.70;99.90;;;;;;4913265;28;21678;-89
2021/12/22 08:52:04;;;;;;;11.67;6.70;;;0.80;99.90;;;;;;4942752;28;20455;-85
2021/12/22 08:54:31;;;;;;;8.90;6.77;;;0.80;99.90;;;;;;4933923;28;22665;-82
2021/12/22 08:56:58;;;;;;;10.47;7.50;;;0.60;99.90;;;;;;4931474;28;20457;-83
2021/12/22 08:59:25;;;;;;;10.27;6.23;;;0.60;99.90;;;;;;4936614;28;20456;-85
2021/12/22 09:01:53;;;;;;;10.20;6.53;;;0.60;99.90;;;;;;4912394;28;20486;-85
2021/12/22 09:04:21;;;;;;;12.33;6.43;;;0.90;99.90;;;;;;4924364;28;21212;-85
2021/12/22 09:06:50;;;;;;;12.20;7.13;;;1.00;99.90;;;;;;4924333;28;20476;-84
2021/12/22 09:09:19;;;;;;;13.40;7.87;;;1.00;99.90;;;;;;4904436;28;21748;-85
2021/12/22 09:11:47;;;;;;;11.90;7.33;;;1.10;99.90;;;;;;4877915;28;21154;-87
2021/12/22 09:14:15;;;;;;;9.97;6.87;;;0.90;99.90;;;;;;4869578;28;20483;-88
2021/12/22 09:16:42;;;;;;;11.47;7.50;;;0.70;99.90;;;;;;4877723;28;20463;-84
2021/12/22 09:19:10;;;;;;;8.63;5.50;;;0.80;99.90;;;;;;4903393;28;20490;-84
2021/12/22 09:21:42;;;;;;;11.03;6.80;;;0.90;99.90;;;;;;4860052;28;21469;-83
2021/12/22 09:24:10;;;;;;;11.10;6.83;;;1.00;99.90;;;;;;4886534;28;20596;-85
2021/12/22 09:26:37;;;;;;;8.33;6.07;;;1.00;99.90;;;;;;4901068;28;20459;-85
2021/12/22 09:29:04;;;;;;;8.30;6.77;;;1.30;99.90;;;;;;4905237;28;22012;-84
2021/12/22 09:31:34;;;;;;;10.20;7.17;;;1.60;99.90;;;;;;4918657;28;20485;-83
2021/12/22 09:34:25;;;;;;;9.50;7.70;;;1.90;99.90;;;;;;4900293;28;20488;-84
2021/12/22 09:37:17;;;;;;;10.10;6.93;;;2.10;99.90;;;;;;4881105;23;20436;-86
2021/12/22 09:40:05;;;;;;;9.50;7.23;;;2.90;99.90;;;;;;4883152;28;20456;-87
2021/12/22 09:43:03;;;;;;;12.23;7.90;;;4.00;96.90;;;;;;4917824;28;20475;-87
2021/12/22 09:45:42;;;;;;;8.83;7.03;;;4.70;95.10;;;;;;4882441;28;20469;-84
2021/12/22 09:52:15;;;;;;;10.80;7.40;;;5.30;92.70;;;;;;4875943;28;20455;-85
2021/12/22 09:53:46;;;;;;;11.73;8.90;;;5.30;92.40;;;;;;4914620;28;20489;-85
2021/12/22 09:56:21;;;;;;;8.50;7.30;;;5.00;92.80;;;;;;4910148;28;20556;-87
2021/12/22 09:58:54;;;;;;;8.63;7.17;;;5.20;92.70;;;;;;4932850;28;20476;-86
2021/12/22 10:01:35;;;;;;;9.57;6.30;;;5.40;92.80;;;;;;4916597;28;20457;-86
2021/12/22 10:04:10;;;;;;;10.50;8.03;;;4.90;92.20;;;;;;4881940;28;22322;-86
2021/12/22 10:06:38;;;;;;;13.40;8.27;;;4.30;93.10;;;;;;4873529;28;20498;-84
2021/12/22 10:09:08;;;;;;;10.10;7.30;;;4.00;93.70;;;;;;4860767;28;20872;-86
2021/12/22 10:11:43;;;;;;;12.90;9.43;;;3.90;94.60;;;;;;4937220;28;20537;-86
2021/12/22 10:14:25;;;;;;;10.00;7.83;;;3.70;95.10;;;;;;4927534;28;20582;-86
2021/12/22 10:16:55;;;;;;;10.53;7.77;;;3.80;95.40;;;;;;4927172;28;20457;-84
2021/12/22 10:19:26;;;;;;;11.17;8.53;;;3.80;95.50;;;;;;4914131;28;20860;-84
2021/12/22 10:22:06;;;;;;;9.83;7.30;;;3.70;95.70;;;;;;4903070;28;20498;-87
2021/12/22 10:24:39;;;;;;;14.17;9.70;;;3.50;96.00;;;;;;4917625;28;20458;-86
2021/12/22 10:27:19;;;;;;;14.10;7.80;;;3.40;96.40;;;;;;4909723;28;20470;-86
2021/12/22 10:29:46;;;;;;;9.47;7.60;;;3.20;96.70;;;;;;4866265;28;20823;-85
2021/12/22 10:32:15;;;;;;;11.33;7.40;;;3.20;97.20;;;;;;4873975;28;21435;-87
2021/12/22 10:35:00;;;;;;;12.33;8.20;;;3.50;96.70;;;;;;4853910;28;20845;-85
2021/12/22 10:37:58;;;;;;;10.73;7.73;;;3.00;96.80;;;;;;4907413;28;20520;-84
2021/12/22 10:40:37;;;;;;;10.30;7.40;;;3.20;97.30;;;;;;4867183;28;21660;-86
2021/12/22 10:43:06;;;;;;;9.90;7.17;;;3.10;97.40;;;;;;4859175;28;20498;-85
2021/12/22 10:45:39;;;;;;;12.00;7.80;;;3.00;97.40;;;;;;4904394;28;21180;-85
2021/12/22 10:51:11;;;;;;;11.40;6.50;;;2.70;98.40;;;;;;4920939;28;20468;-83
2021/12/22 10:53:45;;;;;;;12.97;8.20;;;2.80;98.40;;;;;;4929801;28;20656;-86
2021/12/22 10:56:29;;;;;;;9.23;7.60;;;2.80;98.50;;;;;;4925270;28;20459;-86
2021/12/22 10:59:07;;;;;;;10.03;7.30;;;3.10;98.40;;;;;;4891970;28;20479;-87
2021/12/22 11:01:38;;;;;;;10.40;7.40;;;2.90;98.10;;;;;;4888595;28;20463;-86
2021/12/22 11:04:15;;;;;;;11.37;6.93;;;3.60;97.50;;;;;;4920004;28;20491;-86
2021/12/22 11:06:42;;;;;;;10.83;7.90;;;3.80;96.10;;;;;;4863976;28;20472;-83
2021/12/22 11:09:15;;;;;;;10.53;7.57;;;3.80;96.00;;;;;;4859476;28;20509;-83
2021/12/22 11:11:43;;;;;;;9.50;8.00;;;3.80;95.80;;;;;;4855499;28;22480;-85
2021/12/22 11:14:16;;;;;;;9.63;8.20;;;3.80;96.10;;;;;;4903334;28;20492;-83
2021/12/22 11:17:00;;;;;;;13.23;5.73;;;3.90;95.20;;;;;;4941529;28;21905;-83
2021/12/22 11:19:33;;;;;;;11.27;8.00;;;3.90;95.10;;;;;;4923238;28;20457;-84
2021/12/22 11:22:15;;;;;;;10.87;7.03;;;3.80;95.60;;;;;;4890148;28;20468;-85
2021/12/22 11:24:47;;;;;;;10.93;7.13;;;3.90;95.80;;;;;;4888998;28;20473;-85
2021/12/22 11:27:25;;;;;;;11.87;8.60;;;3.90;95.60;;;;;;4864324;28;20462;-84
2021/12/22 11:29:58;;;;;;;10.67;7.13;;;3.80;95.50;;;;;;4902027;28;20699;-85
2021/12/22 11:32:34;;;;;;;12.10;7.80;;;3.90;95.40;;;;;;4885278;28;20459;-85
2021/12/22 11:35:12;;;;;;;10.03;7.30;;;3.80;95.20;;;;;;4874150;28;20496;-82
2021/12/22 11:37:43;;;;;;;11.17;7.87;;;3.70;95.30;;;;;;4906735;28;20554;-85
2021/12/22 11:40:26;;;;;;;11.40;8.50;;;3.70;95.50;;;;;;4917018;28;20475;-85
2021/12/22 11:43:08;;;;;;;9.23;7.40;;;3.80;95.60;;;;;;4930287;28;20466;-84
2021/12/22 11:46:00;;;;;;;10.43;8.10;;;4.00;95.40;;;;;;4918480;28;20471;-82
2021/12/22 11:48:27;;;;;;;9.63;7.10;;;4.00;95.00;;;;;;4855396;28;20914;-83
2021/12/22 11:51:10;;;;;;;9.77;8.27;;;4.00;95.10;;;;;;4883753;28;20463;-82
2021/12/22 11:53:59;;;;;;;11.17;7.73;;;4.00;94.90;;;;;;4874594;28;20450;-83
2021/12/22 11:56:34;;;;;;;12.87;8.03;;;4.00;95.30;;;;;;4904646;28;20453;-83
2021/12/22 11:59:21;;;;;;;11.70;7.93;;;3.90;95.20;;;;;;4862444;28;20489;-83
2021/12/22 12:02:16;;;;;;;10.10;8.03;;;3.90;95.10;;;;;;4880884;28;20481;-84
2021/12/22 12:05:22;;;;;;;10.40;7.57;;;3.80;95.60;;;;;;4806416;28;20796;-83
2021/12/22 12:08:02;;;;;;;9.23;7.50;;;4.10;95.10;;;;;;4930985;28;20485;-83
2021/12/22 12:10:40;;;;;;;10.57;8.90;;;4.10;95.20;;;;;;4936103;28;20471;-85
2021/12/22 12:13:24;;;;;;;8.53;7.13;;;4.40;94.40;;;;;;4934825;28;20464;-85
2021/12/22 12:22:23;;;;;;;12.90;8.33;;;3.90;94.40;;;;;;4868073;28;21294;-85
2021/12/22 12:25:14;;;;;;;7.80;7.00;;;3.90;94.60;;;;;;4862636;28;20557;-83
2021/12/22 12:28:06;;;;;;;9.67;7.20;;;3.90;94.70;;;;;;4874500;28;20476;-83
2021/12/22 12:30:44;;;;;;;10.00;6.80;;;3.90;94.40;;;;;;4889722;28;20471;-85
2021/12/22 12:33:20;;;;;;;9.63;7.40;;;3.70;95.10;;;;;;4919570;28;20479;-83
2021/12/22 12:36:12;;;;;;;8.90;6.90;;;3.90;95.10;;;;;;4953288;28;22480;-84
2021/12/22 12:39:09;;;;;;;12.27;9.20;;;3.90;95.10;;;;;;4894858;28;20489;-84
2021/12/22 12:42:05;;;;;;;12.47;8.90;;;4.20;94.30;;;;;;4876552;28;21190;-84
2021/12/22 12:44:32;;;;;;;9.10;6.63;;;4.30;94.10;;;;;;4873323;28;20465;-84
2021/12/22 12:47:19;;;;;;;8.90;7.10;;;4.30;94.10;;;;;;4887849;28;20462;-82
2021/12/22 12:49:46;;;;;;;9.87;8.20;;;4.20;93.80;;;;;;4868257;28;20468;-83
2021/12/22 12:52:20;;;;;;;10.00;8.53;;;4.20;94.00;;;;;;4882855;28;20540;-82
2021/12/22 12:54:49;;;;;;;10.57;7.50;;;4.20;94.30;;;;;;4913747;28;20485;-83
2021/12/22 12:57:15;;;;;;;11.93;9.07;;;4.30;94.30;;;;;;4926266;28;20550;-84
2021/12/22 13:00:01;;;;;;;12.23;8.93;;;4.10;94.40;;;;;;4919380;28;20512;-83
2021/12/22 13:02:38;;;;;;;10.10;7.20;;;4.30;94.80;;;;;;4920512;28;20572;-83
2021/12/22 13:05:14;;;;;;;9.47;6.97;;;4.30;94.10;;;;;;4886932;28;20471;-84
2021/12/22 13:07:46;;;;;;;7.73;5.97;;;4.30;94.10;;;;;;4885542;28;20495;-81
2021/12/22 13:10:30;;;;;;;9.73;8.73;;;4.50;93.80;;;;;;4876979;28;20473;-84
2021/12/22 13:13:40;;;;;;;11.50;7.70;;;4.50;93.80;;;;;;4863088;28;20578;-82
2021/12/22 13:16:15;;;;;;;8.40;6.67;;;4.60;93.80;;;;;;4870065;28;20491;-82
2021/12/22 13:18:43;;;;;;;9.50;7.80;;;4.70;93.00;;;;;;4855111;28;20485;-82
2021/12/22 13:21:16;;;;;;;10.27;8.40;;;4.60;92.90;;;;;;4868470;28;20469;-82
2021/12/22 13:23:49;;;;;;;12.17;8.87;;;4.50;92.80;;;;;;4879641;28;21022;-84
2021/12/22 13:26:18;;;;;;;10.10;8.73;;;4.40;93.30;;;;;;4909494;28;20864;-83
2021/12/22 13:28:48;;;;;;;10.97;9.30;;;4.40;93.70;;;;;;4921788;28;20506;-83
2021/12/22 13:31:19;;;;;;;12.07;9.53;;;4.40;93.60;;;;;;4921603;28;20480;-82
2021/12/22 13:34:01;;;;;;;13.20;9.00;;;4.40;93.60;;;;;;4867968;28;20500;-84
2021/12/22 13:36:35;;;;;;;13.23;8.97;;;4.40;93.70;;;;;;4873090;28;20550;-82
2021/12/22 13:39:05;;;;;;;9.63;8.63;;;4.40;93.60;;;;;;4872089;28;20492;-83
2021/12/22 13:41:35;;;;;;;9.10;7.70;;;4.10;93.60;;;;;;4882454;28;20467;-84
2021/12/22 13:44:09;;;;;;;12.83;8.97;;;4.10;94.10;;;;;;4857219;28;20966;-83
2021/12/22 13:47:05;;;;;;;11.63;8.57;;;4.30;93.70;;;;;;4868336;28;20574;-83
2021/12/22 13:49:33;;;;;;;11.97;8.10;;;4.60;93.40;;;;;;4903836;28;20450;-81